sensor_id;sensor_type;location;lat;lon;timestamp;pressure;altitude;pressure_sealevel;temperature;humidity
28354;BME280;15603;50.878;8.036;2023-11-22T00:01:52;142572.13;;;-2.97;100.00
28354;BME280;15603;50.878;8.036;2023-11-22T00:04:19;142558.88;;;-3.02;100.00
28354;BME280;15603;50.878;8.036;2023-11-22T00:06:47;142552.88;;;-3.05;100.00
28354;BME280;15603;50.878;8.036;2023-11-22T00:09:14;142550.50;;;-3.06;100.00
28354;BME280;15603;50.878;8.036;2023-11-22T00:11:41;142466.31;;;-3.42;100.00
28354;BME280;15603;50.878;8.036;2023-11-22T00:14:08;142537.28;;;-3.11;100.00
28354;BME280;15603;50.878;8.036;2023-11-22T00:16:35;142527.66;;;-3.16;100.00
28354;BME280;15603;50.878;8.036;2023-11-22T00:19:04;142528.84;;;-3.15;100.00
28354;BME280;15603;50.878;8.036;2023-11-22T00:21:33;142514.41;;;-3.21;100.00
28354;BME280;15603;50.878;8.036;2023-11-22T00:24:00;142519.22;;;-3.19;100.00
28354;BME280;15603;50.878;8.036;2023-11-22T00:26:27;142534.84;;;-3.12;100.00
28354;BME280;15603;50.878;8.036;2023-11-22T00:28:58;142545.69;;;-3.08;100.00
28354;BME280;15603;50.878;8.036;2023-11-22T00:31:27;142543.28;;;-3.09;100.00
28354;BME280;15603;50.878;8.036;2023-11-22T00:33:54;142557.69;;;-3.03;100.00
28354;BME280;15603;50.878;8.036;2023-11-22T00:36:22;142562.50;;;-3.01;100.00
28354;BME280;15603;50.878;8.036;2023-11-22T00:38:49;142569.75;;;-2.98;100.00
28354;BME280;15603;50.878;8.036;2023-11-22T00:41:16;142550.50;;;-3.06;100.00
28354;BME280;15603;50.878;8.036;2023-11-22T00:43:43;142548.06;;;-3.07;100.00
28354;BME280;15603;50.878;8.036;2023-11-22T00:46:10;142536.03;;;-3.12;100.00
28354;BME280;15603;50.878;8.036;2023-11-22T00:48:37;142455.50;;;-3.46;100.00
28354;BME280;15603;50.878;8.036;2023-11-22T00:51:05;142546.88;;;-3.07;100.00
28354;BME280;15603;50.878;8.036;2023-11-22T00:53:35;142543.28;;;-3.09;100.00
28354;BME280;15603;50.878;8.036;2023-11-22T00:56:05;142431.41;;;-3.57;100.00
28354;BME280;15603;50.878;8.036;2023-11-22T00:58:33;142531.22;;;-3.14;100.00
28354;BME280;15603;50.878;8.036;2023-11-22T01:01:00;142516.81;;;-3.20;100.00
28354;BME280;15603;50.878;8.036;2023-11-22T01:03:27;142534.84;;;-3.12;100.00
28354;BME280;15603;50.878;8.036;2023-11-22T01:05:54;142526.41;;;-3.16;100.00
28354;BME280;15603;50.878;8.036;2023-11-22T01:08:23;142538.47;;;-3.11;100.00
28354;BME280;15603;50.878;8.036;2023-11-22T01:10:50;142463.88;;;-3.43;100.00
28354;BME280;15603;50.878;8.036;2023-11-22T01:13:17;142531.22;;;-3.14;100.00
28354;BME280;15603;50.878;8.036;2023-11-22T01:15:44;142528.84;;;-3.15;100.00
28354;BME280;15603;50.878;8.036;2023-11-22T01:18:12;142533.66;;;-3.13;100.00
28354;BME280;15603;50.878;8.036;2023-11-22T01:20:39;142516.81;;;-3.20;100.00
28354;BME280;15603;50.878;8.036;2023-11-22T01:23:06;142520.41;;;-3.19;100.00
28354;BME280;15603;50.878;8.036;2023-11-22T01:25:33;142555.31;;;-3.04;100.00
28354;BME280;15603;50.878;8.036;2023-11-22T01:28:00;142530.03;;;-3.14;100.00
28354;BME280;15603;50.878;8.036;2023-11-22T01:30:27;142545.69;;;-3.08;100.00
28354;BME280;15603;50.878;8.036;2023-11-22T01:32:55;142543.28;;;-3.09;100.00
28354;BME280;15603;50.878;8.036;2023-11-22T01:35:23;142530.03;;;-3.14;100.00
28354;BME280;15603;50.878;8.036;2023-11-22T01:37:50;142502.38;;;-3.26;100.00
28354;BME280;15603;50.878;8.036;2023-11-22T01:40:17;142492.75;;;-3.30;100.00
28354;BME280;15603;50.878;8.036;2023-11-22T01:42:46;142499.94;;;-3.27;100.00
28354;BME280;15603;50.878;8.036;2023-11-22T01:45:13;142408.59;;;-3.66;100.00
28354;BME280;15603;50.878;8.036;2023-11-22T01:47:42;142290.78;;;-4.17;100.00
28354;BME280;15603;50.878;8.036;2023-11-22T01:50:10;142486.72;;;-3.33;100.00
28354;BME280;15603;50.878;8.036;2023-11-22T01:52:38;142492.75;;;-3.30;100.00
28354;BME280;15603;50.878;8.036;2023-11-22T01:55:06;142498.75;;;-3.28;100.00
28354;BME280;15603;50.878;8.036;2023-11-22T01:57:35;142435.03;;;-3.55;100.00
28354;BME280;15603;50.878;8.036;2023-11-22T02:00:05;142510.81;;;-3.23;100.00
28354;BME280;15603;50.878;8.036;2023-11-22T02:02:41;142398.97;;;-3.70;100.00
28354;BME280;15603;50.878;8.036;2023-11-22T02:05:09;142478.34;;;-3.37;100.00
28354;BME280;15603;50.878;8.036;2023-11-22T02:07:38;142496.38;;;-3.29;100.00
28354;BME280;15603;50.878;8.036;2023-11-22T02:10:07;142477.09;;;-3.37;100.00
28354;BME280;15603;50.878;8.036;2023-11-22T02:12:34;142456.69;;;-3.46;100.00
28354;BME280;15603;50.878;8.036;2023-11-22T02:15:03;142459.06;;;-3.45;100.00
28354;BME280;15603;50.878;8.036;2023-11-22T02:17:30;142460.31;;;-3.44;100.00
28354;BME280;15603;50.878;8.036;2023-11-22T02:19:57;142471.13;;;-3.40;100.00
28354;BME280;15603;50.878;8.036;2023-11-22T02:22:25;142453.06;;;-3.47;100.00
28354;BME280;15603;50.878;8.036;2023-11-22T02:24:52;142449.47;;;-3.49;100.00
28354;BME280;15603;50.878;8.036;2023-11-22T02:27:19;142444.66;;;-3.51;100.00
28354;BME280;15603;50.878;8.036;2023-11-22T02:29:46;142442.28;;;-3.52;100.00
28354;BME280;15603;50.878;8.036;2023-11-22T02:32:14;142457.88;;;-3.45;100.00
28354;BME280;15603;50.878;8.036;2023-11-22T02:34:41;142448.28;;;-3.49;100.00
28354;BME280;15603;50.878;8.036;2023-11-22T02:37:08;142432.59;;;-3.56;100.00
28354;BME280;15603;50.878;8.036;2023-11-22T02:39:50;142418.19;;;-3.62;100.00
28354;BME280;15603;50.878;8.036;2023-11-22T02:42:21;142412.19;;;-3.65;100.00
28354;BME280;15603;50.878;8.036;2023-11-22T02:44:48;142403.78;;;-3.68;100.00
28354;BME280;15603;50.878;8.036;2023-11-22T02:47:15;142350.88;;;-3.91;98.50
28354;BME280;15603;50.878;8.036;2023-11-22T02:49:43;142301.59;;;-4.12;98.63
28354;BME280;15603;50.878;8.036;2023-11-22T02:52:11;142260.75;;;-4.29;97.73
28354;BME280;15603;50.878;8.036;2023-11-22T02:54:44;142218.69;;;-4.47;99.67
28354;BME280;15603;50.878;8.036;2023-11-22T02:57:14;142223.50;;;-4.45;100.00
28354;BME280;15603;50.878;8.036;2023-11-22T02:59:43;142186.28;;;-4.61;98.92
28354;BME280;15603;50.878;8.036;2023-11-22T03:02:10;142199.50;;;-4.56;94.54
28354;BME280;15603;50.878;8.036;2023-11-22T03:04:38;142216.28;;;-4.48;95.05
28354;BME280;15603;50.878;8.036;2023-11-22T03:07:05;142209.09;;;-4.51;93.33
28354;BME280;15603;50.878;8.036;2023-11-22T03:09:33;142180.25;;;-4.64;93.14
28354;BME280;15603;50.878;8.036;2023-11-22T03:12:00;142147.81;;;-4.78;93.99
28354;BME280;15603;50.878;8.036;2023-11-22T03:14:29;142098.56;;;-4.99;98.62
28354;BME280;15603;50.878;8.036;2023-11-22T03:16:57;142078.19;;;-5.07;100.00
28354;BME280;15603;50.878;8.036;2023-11-22T03:19:24;142062.53;;;-5.14;100.00
28354;BME280;15603;50.878;8.036;2023-11-22T03:21:51;142049.34;;;-5.20;100.00
28354;BME280;15603;50.878;8.036;2023-11-22T03:24:19;142061.38;;;-5.15;100.00
28354;BME280;15603;50.878;8.036;2023-11-22T03:26:46;142032.56;;;-5.27;100.00
28354;BME280;15603;50.878;8.036;2023-11-22T03:29:15;142000.16;;;-5.41;100.00
28354;BME280;15603;50.878;8.036;2023-11-22T03:31:45;141973.75;;;-5.52;100.00
28354;BME280;15603;50.878;8.036;2023-11-22T03:34:14;141952.13;;;-5.61;100.00
28354;BME280;15603;50.878;8.036;2023-11-22T03:36:41;141930.50;;;-5.70;100.00
28354;BME280;15603;50.878;8.036;2023-11-22T03:39:09;141916.13;;;-5.77;100.00
28354;BME280;15603;50.878;8.036;2023-11-22T03:41:37;141908.91;;;-5.80;100.00
28354;BME280;15603;50.878;8.036;2023-11-22T03:44:05;141902.91;;;-5.82;100.00
28354;BME280;15603;50.878;8.036;2023-11-22T03:46:38;141889.72;;;-5.88;100.00
28354;BME280;15603;50.878;8.036;2023-11-22T03:49:07;141796.16;;;-6.28;100.00
28354;BME280;15603;50.878;8.036;2023-11-22T03:51:35;141887.28;;;-5.89;100.00
28354;BME280;15603;50.878;8.036;2023-11-22T03:54:02;141870.56;;;-5.96;100.00
28354;BME280;15603;50.878;8.036;2023-11-22T03:56:30;141851.34;;;-6.04;100.00
28354;BME280;15603;50.878;8.036;2023-11-22T03:58:57;141834.59;;;-6.12;100.00
28354;BME280;15603;50.878;8.036;2023-11-22T04:01:24;141828.56;;;-6.14;100.00
28354;BME280;15603;50.878;8.036;2023-11-22T04:03:51;141829.78;;;-6.14;100.00
28354;BME280;15603;50.878;8.036;2023-11-22T04:06:19;141825.00;;;-6.16;100.00
28354;BME280;15603;50.878;8.036;2023-11-22T04:08:47;141741.00;;;-6.52;100.00
28354;BME280;15603;50.878;8.036;2023-11-22T04:11:15;141695.44;;;-6.71;100.00
28354;BME280;15603;50.878;8.036;2023-11-22T04:13:44;141792.56;;;-6.29;100.00
28354;BME280;15603;50.878;8.036;2023-11-22T04:16:11;141786.59;;;-6.32;100.00
28354;BME280;15603;50.878;8.036;2023-11-22T04:18:40;141768.59;;;-6.40;100.00
28354;BME280;15603;50.878;8.036;2023-11-22T04:21:08;141663.09;;;-6.85;100.00
28354;BME280;15603;50.878;8.036;2023-11-22T04:23:35;141743.38;;;-6.51;100.00
28354;BME280;15603;50.878;8.036;2023-11-22T04:26:03;141721.84;;;-6.60;100.00
28354;BME280;15603;50.878;8.036;2023-11-22T04:28:31;141701.44;;;-6.68;100.00
28354;BME280;15603;50.878;8.036;2023-11-22T04:30:58;141699.06;;;-6.69;100.00
28354;BME280;15603;50.878;8.036;2023-11-22T04:33:25;141683.44;;;-6.76;100.00
28354;BME280;15603;50.878;8.036;2023-11-22T04:35:55;141525.22;;;-7.44;100.00
28354;BME280;15603;50.878;8.036;2023-11-22T04:38:23;141661.84;;;-6.85;100.00
28354;BME280;15603;50.878;8.036;2023-11-22T04:40:50;141643.88;;;-6.93;100.00
28354;BME280;15603;50.878;8.036;2023-11-22T04:43:17;141640.31;;;-6.95;100.00
28354;BME280;15603;50.878;8.036;2023-11-22T04:45:44;141651.09;;;-6.90;100.00
28354;BME280;15603;50.878;8.036;2023-11-22T04:48:11;141645.09;;;-6.93;100.00
28354;BME280;15603;50.878;8.036;2023-11-22T04:50:42;141609.13;;;-7.08;100.00
28354;BME280;15603;50.878;8.036;2023-11-22T04:53:12;141599.50;;;-7.12;100.00
28354;BME280;15603;50.878;8.036;2023-11-22T04:55:39;141601.94;;;-7.11;100.00
28354;BME280;15603;50.878;8.036;2023-11-22T04:58:06;141460.53;;;-7.72;100.00
28354;BME280;15603;50.878;8.036;2023-11-22T05:00:33;141460.53;;;-7.72;100.00
28354;BME280;15603;50.878;8.036;2023-11-22T05:03:00;141544.38;;;-7.36;100.00
28354;BME280;15603;50.878;8.036;2023-11-22T05:05:28;141532.44;;;-7.41;100.00
28354;BME280;15603;50.878;8.036;2023-11-22T05:07:55;141530.00;;;-7.42;100.00
28354;BME280;15603;50.878;8.036;2023-11-22T05:10:22;141521.63;;;-7.45;100.00
28354;BME280;15603;50.878;8.036;2023-11-22T05:12:49;141510.84;;;-7.50;100.00
28354;BME280;15603;50.878;8.036;2023-11-22T05:15:16;141496.47;;;-7.56;100.00
28354;BME280;15603;50.878;8.036;2023-11-22T05:17:43;141484.47;;;-7.61;100.00
28354;BME280;15603;50.878;8.036;2023-11-22T05:20:11;141462.91;;;-7.71;100.00
28354;BME280;15603;50.878;8.036;2023-11-22T05:22:38;141455.72;;;-7.74;100.00
28354;BME280;15603;50.878;8.036;2023-11-22T05:25:05;141462.91;;;-7.71;100.00
28354;BME280;15603;50.878;8.036;2023-11-22T05:27:33;141473.69;;;-7.66;100.00
28354;BME280;15603;50.878;8.036;2023-11-22T05:30:00;141460.53;;;-7.72;100.00
28354;BME280;15603;50.878;8.036;2023-11-22T05:32:28;141447.34;;;-7.77;100.00
28354;BME280;15603;50.878;8.036;2023-11-22T05:34:58;141418.56;;;-7.90;100.00
28354;BME280;15603;50.878;8.036;2023-11-22T05:37:25;141442.56;;;-7.79;100.00
28354;BME280;15603;50.878;8.036;2023-11-22T05:39:53;141442.56;;;-7.79;100.00
28354;BME280;15603;50.878;8.036;2023-11-22T05:42:20;141436.56;;;-7.82;100.00
28354;BME280;15603;50.878;8.036;2023-11-22T05:44:47;141436.56;;;-7.82;100.00
28354;BME280;15603;50.878;8.036;2023-11-22T05:47:16;141430.56;;;-7.84;100.00
28354;BME280;15603;50.878;8.036;2023-11-22T05:49:45;141429.38;;;-7.85;100.00
28354;BME280;15603;50.878;8.036;2023-11-22T05:52:13;141424.59;;;-7.87;100.00
28354;BME280;15603;50.878;8.036;2023-11-22T05:54:40;141403.03;;;-7.96;100.00
28354;BME280;15603;50.878;8.036;2023-11-22T05:57:07;141370.69;;;-8.10;100.00
28354;BME280;15603;50.878;8.036;2023-11-22T05:59:34;141404.22;;;-7.96;100.00
28354;BME280;15603;50.878;8.036;2023-11-22T06:02:01;141399.44;;;-7.98;100.00
28354;BME280;15603;50.878;8.036;2023-11-22T06:04:28;141400.63;;;-7.97;100.00
28354;BME280;15603;50.878;8.036;2023-11-22T06:06:57;141398.25;;;-7.98;100.00
28354;BME280;15603;50.878;8.036;2023-11-22T06:09:24;141404.22;;;-7.96;100.00
28354;BME280;15603;50.878;8.036;2023-11-22T06:11:51;141389.84;;;-8.02;100.00
28354;BME280;15603;50.878;8.036;2023-11-22T06:14:20;141387.44;;;-8.03;100.00
28354;BME280;15603;50.878;8.036;2023-11-22T06:16:49;141386.25;;;-8.03;100.00
28354;BME280;15603;50.878;8.036;2023-11-22T06:19:16;141386.25;;;-8.03;100.00
28354;BME280;15603;50.878;8.036;2023-11-22T06:21:43;141381.47;;;-8.05;100.00
28354;BME280;15603;50.878;8.036;2023-11-22T06:24:10;141369.47;;;-8.11;100.00
28354;BME280;15603;50.878;8.036;2023-11-22T06:26:43;141355.09;;;-8.17;100.00
28354;BME280;15603;50.878;8.036;2023-11-22T06:29:10;141371.88;;;-8.10;100.00
28354;BME280;15603;50.878;8.036;2023-11-22T06:31:38;141399.44;;;-7.98;100.00
28354;BME280;15603;50.878;8.036;2023-11-22T06:34:05;141386.25;;;-8.03;100.00
28354;BME280;15603;50.878;8.036;2023-11-22T06:36:32;141388.66;;;-8.02;100.00
28354;BME280;15603;50.878;8.036;2023-11-22T06:38:59;141391.03;;;-8.01;100.00
28354;BME280;15603;50.878;8.036;2023-11-22T06:41:26;141395.81;;;-7.99;100.00
28354;BME280;15603;50.878;8.036;2023-11-22T06:43:55;141321.59;;;-8.31;100.00
28354;BME280;15603;50.878;8.036;2023-11-22T06:46:22;141403.03;;;-7.96;100.00
28354;BME280;15603;50.878;8.036;2023-11-22T06:48:50;141414.97;;;-7.91;100.00
28354;BME280;15603;50.878;8.036;2023-11-22T06:51:17;141351.50;;;-8.18;100.00
28354;BME280;15603;50.878;8.036;2023-11-22T06:53:45;141387.44;;;-8.03;100.00
28354;BME280;15603;50.878;8.036;2023-11-22T06:56:13;141374.25;;;-8.09;100.00
28354;BME280;15603;50.878;8.036;2023-11-22T06:58:41;141369.47;;;-8.11;100.00
28354;BME280;15603;50.878;8.036;2023-11-22T07:01:08;141352.75;;;-8.18;100.00
28354;BME280;15603;50.878;8.036;2023-11-22T07:03:38;141352.75;;;-8.18;100.00
28354;BME280;15603;50.878;8.036;2023-11-22T07:06:05;141326.38;;;-8.29;100.00
28354;BME280;15603;50.878;8.036;2023-11-22T07:08:32;141333.53;;;-8.26;100.00
28354;BME280;15603;50.878;8.036;2023-11-22T07:11:00;141347.91;;;-8.20;100.00
28354;BME280;15603;50.878;8.036;2023-11-22T07:13:27;141343.13;;;-8.22;100.00
28354;BME280;15603;50.878;8.036;2023-11-22T07:15:54;141343.13;;;-8.22;100.00
28354;BME280;15603;50.878;8.036;2023-11-22T07:18:22;141350.31;;;-8.19;100.00
28354;BME280;15603;50.878;8.036;2023-11-22T07:20:51;141350.31;;;-8.19;100.00
28354;BME280;15603;50.878;8.036;2023-11-22T07:23:20;141350.31;;;-8.19;100.00
28354;BME280;15603;50.878;8.036;2023-11-22T07:25:52;141386.25;;;-8.03;100.00
28354;BME280;15603;50.878;8.036;2023-11-22T07:28:19;141387.44;;;-8.03;100.00
28354;BME280;15603;50.878;8.036;2023-11-22T07:30:46;141387.44;;;-8.03;100.00
28354;BME280;15603;50.878;8.036;2023-11-22T07:33:16;141391.03;;;-8.01;100.00
28354;BME280;15603;50.878;8.036;2023-11-22T07:35:43;141409.00;;;-7.94;100.00
28354;BME280;15603;50.878;8.036;2023-11-22T07:38:11;141428.16;;;-7.85;100.00
28354;BME280;15603;50.878;8.036;2023-11-22T07:40:38;141467.69;;;-7.68;100.00
28354;BME280;15603;50.878;8.036;2023-11-22T07:43:05;141476.09;;;-7.65;100.00
28354;BME280;15603;50.878;8.036;2023-11-22T07:45:34;141491.66;;;-7.58;100.00
28354;BME280;15603;50.878;8.036;2023-11-22T07:48:01;141518.00;;;-7.47;100.00
28354;BME280;15603;50.878;8.036;2023-11-22T07:50:30;141551.59;;;-7.33;100.00
28354;BME280;15603;50.878;8.036;2023-11-22T07:52:57;141561.19;;;-7.28;100.00
28354;BME280;15603;50.878;8.036;2023-11-22T07:55:24;141588.75;;;-7.17;100.00
28354;BME280;15603;50.878;8.036;2023-11-22T07:57:51;141609.13;;;-7.08;100.00
28354;BME280;15603;50.878;8.036;2023-11-22T08:00:20;141617.50;;;-7.04;100.00
28354;BME280;15603;50.878;8.036;2023-11-22T08:02:47;141635.47;;;-6.97;100.00
28354;BME280;15603;50.878;8.036;2023-11-22T08:05:16;141593.53;;;-7.15;100.00
28354;BME280;15603;50.878;8.036;2023-11-22T08:07:43;141693.03;;;-6.72;100.00
28354;BME280;15603;50.878;8.036;2023-11-22T08:10:15;141696.63;;;-6.71;100.00
28354;BME280;15603;50.878;8.036;2023-11-22T08:12:48;141721.84;;;-6.60;100.00
28354;BME280;15603;50.878;8.036;2023-11-22T08:15:17;141666.66;;;-6.83;100.00
28354;BME280;15603;50.878;8.036;2023-11-22T08:17:47;141762.59;;;-6.42;100.00
28354;BME280;15603;50.878;8.036;2023-11-22T08:20:15;141784.22;;;-6.33;100.00
28354;BME280;15603;50.878;8.036;2023-11-22T08:22:46;141804.56;;;-6.24;100.00
28354;BME280;15603;50.878;8.036;2023-11-22T08:25:17;141826.19;;;-6.15;100.00
28354;BME280;15603;50.878;8.036;2023-11-22T08:27:44;141851.34;;;-6.04;100.00
28354;BME280;15603;50.878;8.036;2023-11-22T08:30:11;141834.59;;;-6.12;100.00
28354;BME280;15603;50.878;8.036;2023-11-22T08:32:43;141908.91;;;-5.80;100.00
28354;BME280;15603;50.878;8.036;2023-11-22T08:35:14;141932.94;;;-5.69;100.00
28354;BME280;15603;50.878;8.036;2023-11-22T08:37:43;141932.94;;;-5.69;100.00
28354;BME280;15603;50.878;8.036;2023-11-22T08:40:10;141940.13;;;-5.66;100.00
28354;BME280;15603;50.878;8.036;2023-11-22T08:42:41;141954.50;;;-5.60;100.00
28354;BME280;15603;50.878;8.036;2023-11-22T08:45:09;141948.53;;;-5.63;100.00
28354;BME280;15603;50.878;8.036;2023-11-22T08:47:42;141892.13;;;-5.87;100.00
28354;BME280;15603;50.878;8.036;2023-11-22T08:50:09;142004.97;;;-5.39;100.00
28354;BME280;15603;50.878;8.036;2023-11-22T08:52:40;142043.34;;;-5.22;100.00
28354;BME280;15603;50.878;8.036;2023-11-22T08:55:09;142031.31;;;-5.27;99.61
28354;BME280;15603;50.878;8.036;2023-11-22T08:57:37;141994.13;;;-5.43;96.71
28354;BME280;15603;50.878;8.036;2023-11-22T09:00:05;142113.03;;;-4.93;95.36
28354;BME280;15603;50.878;8.036;2023-11-22T09:02:37;142147.81;;;-4.78;89.87
28354;BME280;15603;50.878;8.036;2023-11-22T09:05:05;142161.03;;;-4.72;90.28
28354;BME280;15603;50.878;8.036;2023-11-22T09:07:35;142144.19;;;-4.79;92.80
28354;BME280;15603;50.878;8.036;2023-11-22T09:10:03;142163.47;;;-4.71;91.09
28354;BME280;15603;50.878;8.036;2023-11-22T09:12:36;142194.69;;;-4.58;90.02
28354;BME280;15603;50.878;8.036;2023-11-22T09:15:12;142223.50;;;-4.45;90.56
28354;BME280;15603;50.878;8.036;2023-11-22T09:17:43;142206.66;;;-4.53;87.25
28354;BME280;15603;50.878;8.036;2023-11-22T09:20:10;142266.78;;;-4.27;82.31
28354;BME280;15603;50.878;8.036;2023-11-22T09:22:45;142225.94;;;-4.44;81.51
28354;BME280;15603;50.878;8.036;2023-11-22T09:25:15;142257.16;;;-4.31;81.90
28354;BME280;15603;50.878;8.036;2023-11-22T09:27:43;142248.75;;;-4.35;79.59
28354;BME280;15603;50.878;8.036;2023-11-22T09:30:14;142258.34;;;-4.30;77.06
28354;BME280;15603;50.878;8.036;2023-11-22T09:32:47;142173.06;;;-4.67;74.09
28354;BME280;15603;50.878;8.036;2023-11-22T09:35:15;142266.78;;;-4.27;79.46
28354;BME280;15603;50.878;8.036;2023-11-22T09:37:43;142264.34;;;-4.28;71.45
28354;BME280;15603;50.878;8.036;2023-11-22T09:40:11;142269.16;;;-4.26;76.67
28354;BME280;15603;50.878;8.036;2023-11-22T09:42:39;142372.50;;;-3.82;78.58
28354;BME280;15603;50.878;8.036;2023-11-22T09:45:08;142432.59;;;-3.56;77.26
28354;BME280;15603;50.878;8.036;2023-11-22T09:47:35;142504.75;;;-3.25;78.46
28354;BME280;15603;50.878;8.036;2023-11-22T09:50:05;142550.50;;;-3.06;72.35
28354;BME280;15603;50.878;8.036;2023-11-22T09:52:37;142590.16;;;-2.89;71.61
28354;BME280;15603;50.878;8.036;2023-11-22T09:55:09;142544.47;;;-3.08;70.27
28354;BME280;15603;50.878;8.036;2023-11-22T09:57:38;142536.03;;;-3.12;71.37
28354;BME280;15603;50.878;8.036;2023-11-22T10:00:08;142516.81;;;-3.20;68.32
28354;BME280;15603;50.878;8.036;2023-11-22T10:02:40;142562.50;;;-3.01;64.72
28354;BME280;15603;50.878;8.036;2023-11-22T10:05:08;142590.16;;;-2.89;66.63
28354;BME280;15603;50.878;8.036;2023-11-22T10:07:39;142552.88;;;-3.05;62.96
28354;BME280;15603;50.878;8.036;2023-11-22T10:10:06;142639.50;;;-2.68;64.50
28354;BME280;15603;50.878;8.036;2023-11-22T10:12:34;142678.03;;;-2.51;66.71
28354;BME280;15603;50.878;8.036;2023-11-22T10:15:13;142613.03;;;-2.79;62.84
28354;BME280;15603;50.878;8.036;2023-11-22T10:17:49;142638.31;;;-2.68;60.82
28354;BME280;15603;50.878;8.036;2023-11-22T10:20:20;142540.84;;;-3.10;66.57
28354;BME280;15603;50.878;8.036;2023-11-22T10:22:48;142534.84;;;-3.12;67.59
28354;BME280;15603;50.878;8.036;2023-11-22T10:25:15;142539.66;;;-3.10;65.68
28354;BME280;15603;50.878;8.036;2023-11-22T10:27:45;142542.06;;;-3.09;68.74
28354;BME280;15603;50.878;8.036;2023-11-22T10:30:14;142512.00;;;-3.22;65.56
28354;BME280;15603;50.878;8.036;2023-11-22T10:32:45;142509.63;;;-3.23;63.74
28354;BME280;15603;50.878;8.036;2023-11-22T10:35:12;142664.78;;;-2.57;61.59
28354;BME280;15603;50.878;8.036;2023-11-22T10:37:43;142752.63;;;-2.20;59.10
28354;BME280;15603;50.878;8.036;2023-11-22T10:40:14;142732.19;;;-2.28;56.76
28354;BME280;15603;50.878;8.036;2023-11-22T10:42:42;142759.84;;;-2.17;60.85
28354;BME280;15603;50.878;8.036;2023-11-22T10:45:13;142927.22;;;-1.45;57.83
28354;BME280;15603;50.878;8.036;2023-11-22T10:47:42;142918.78;;;-1.49;55.54
28354;BME280;15603;50.878;8.036;2023-11-22T10:50:09;142783.91;;;-2.06;57.37
28354;BME280;15603;50.878;8.036;2023-11-22T10:52:41;142741.81;;;-2.24;59.54
28354;BME280;15603;50.878;8.036;2023-11-22T10:55:12;142729.75;;;-2.29;61.51
28354;BME280;15603;50.878;8.036;2023-11-22T10:57:45;142769.47;;;-2.12;61.56
28354;BME280;15603;50.878;8.036;2023-11-22T11:00:19;142774.28;;;-2.10;60.72
28354;BME280;15603;50.878;8.036;2023-11-22T11:02:58;142646.72;;;-2.65;56.03
28354;BME280;15603;50.878;8.036;2023-11-22T11:05:31;142673.22;;;-2.53;55.91
28354;BME280;15603;50.878;8.036;2023-11-22T11:08:09;142625.06;;;-2.74;59.49
28354;BME280;15603;50.878;8.036;2023-11-22T11:10:40;142651.53;;;-2.63;62.58
28354;BME280;15603;50.878;8.036;2023-11-22T11:13:09;142656.34;;;-2.61;62.98
28354;BME280;15603;50.878;8.036;2023-11-22T11:15:40;142670.78;;;-2.54;61.91
28354;BME280;15603;50.878;8.036;2023-11-22T11:18:08;142651.53;;;-2.63;60.53
28354;BME280;15603;50.878;8.036;2023-11-22T11:20:51;142698.44;;;-2.43;63.22
28354;BME280;15603;50.878;8.036;2023-11-22T11:23:20;142686.44;;;-2.48;60.53
28354;BME280;15603;50.878;8.036;2023-11-22T11:25:54;142605.81;;;-2.82;56.84
28354;BME280;15603;50.878;8.036;2023-11-22T11:28:25;142678.03;;;-2.51;58.14
28354;BME280;15603;50.878;8.036;2023-11-22T11:30:53;142676.81;;;-2.52;61.84
28354;BME280;15603;50.878;8.036;2023-11-22T11:33:32;142678.03;;;-2.51;57.19
28354;BME280;15603;50.878;8.036;2023-11-22T11:36:03;142663.59;;;-2.58;60.08
28354;BME280;15603;50.878;8.036;2023-11-22T11:38:34;142614.25;;;-2.79;59.20
28354;BME280;15603;50.878;8.036;2023-11-22T11:41:11;142581.78;;;-2.92;56.85
28354;BME280;15603;50.878;8.036;2023-11-22T11:43:45;142580.53;;;-2.93;55.92
28354;BME280;15603;50.878;8.036;2023-11-22T11:46:16;142593.78;;;-2.87;55.96
28354;BME280;15603;50.878;8.036;2023-11-22T11:48:48;142562.50;;;-3.01;59.38
28354;BME280;15603;50.878;8.036;2023-11-22T11:51:16;142593.78;;;-2.87;58.05
28354;BME280;15603;50.878;8.036;2023-11-22T11:53:47;142596.22;;;-2.86;55.95
28354;BME280;15603;50.878;8.036;2023-11-22T11:56:14;142527.66;;;-3.16;56.69
28354;BME280;15603;50.878;8.036;2023-11-22T11:58:42;142560.13;;;-3.02;58.52
28354;BME280;15603;50.878;8.036;2023-11-22T12:01:19;142588.97;;;-2.89;59.19
28354;BME280;15603;50.878;8.036;2023-11-22T12:03:49;142601.00;;;-2.84;58.28
28354;BME280;15603;50.878;8.036;2023-11-22T12:06:20;142563.75;;;-3.00;60.52
28354;BME280;15603;50.878;8.036;2023-11-22T12:08:48;142480.72;;;-3.36;56.60
28354;BME280;15603;50.878;8.036;2023-11-22T12:11:16;142591.41;;;-2.88;60.31
28354;BME280;15603;50.878;8.036;2023-11-22T12:13:45;142627.50;;;-2.73;57.81
28354;BME280;15603;50.878;8.036;2023-11-22T12:16:17;142627.50;;;-2.73;54.64
28354;BME280;15603;50.878;8.036;2023-11-22T12:18:48;142637.13;;;-2.69;57.19
28354;BME280;15603;50.878;8.036;2023-11-22T12:21:17;142614.25;;;-2.79;55.06
28354;BME280;15603;50.878;8.036;2023-11-22T12:23:46;142613.03;;;-2.79;56.78
28354;BME280;15603;50.878;8.036;2023-11-22T12:26:17;142521.59;;;-3.18;57.83
28354;BME280;15603;50.878;8.036;2023-11-22T12:28:46;142498.75;;;-3.28;61.67
28354;BME280;15603;50.878;8.036;2023-11-22T12:31:31;142514.41;;;-3.21;62.41
28354;BME280;15603;50.878;8.036;2023-11-22T12:34:04;142512.00;;;-3.22;60.25
28354;BME280;15603;50.878;8.036;2023-11-22T12:36:33;142484.34;;;-3.34;59.52
28354;BME280;15603;50.878;8.036;2023-11-22T12:39:02;142487.97;;;-3.32;59.48
28354;BME280;15603;50.878;8.036;2023-11-22T12:41:30;142512.00;;;-3.22;55.53
28354;BME280;15603;50.878;8.036;2023-11-22T12:46:51;142603.41;;;-2.83;53.55
28354;BME280;15603;50.878;8.036;2023-11-22T12:49:23;142617.88;;;-2.77;50.51
28354;BME280;15603;50.878;8.036;2023-11-22T12:51:55;142543.28;;;-3.09;50.67
28354;BME280;15603;50.878;8.036;2023-11-22T12:54:22;142574.53;;;-2.96;50.07